MaSS Merit — 3FNT3 — position and weather

sailwx.info

Track history (hours):
 
Tides and Currents Weather Stations Pressure Air Temp Water Temp Dewpoint Dewpoint Depression Visibility Wind Speed Wind Dir Waves Ship Positions

MaSS Merit

Last reported at 2017-Dec-15 15:16 UTC. Time now 2017-Dec-17 00:44 UTC.
Position N 25°02' E 122°15'.

Length 189 m; draft 11.8 m.

Type: Cargo ship. MMSI: 355599000.

Date/timePositionNaut miles runAvg speedWind from/ knotsBaromVisibWave heightAir tempDewpointWater temp
2017-Dec-15 15:16N 25°02' E 122°15'310.6
2017-Dec-15 15:00N 24°59' E 122°14'611.2
2017-Dec-15 14:30N 24°54' E 122°13'611.5
2017-Dec-15 14:00N 24°49' E 122°11'611.2
2017-Dec-15 13:30N 24°43' E 122°10'510.3
2017-Dec-15 13:00N 24°39' E 122°07'611.3
2017-Dec-15 12:29N 24°33' E 122°05'1812.0
2017-Dec-15 10:59N 24°15' E 122°00'8812.5
2017-Dec-15 03:57N 22°53' E 121°27'3611.3
2017-Dec-15 00:45N 22°19' E 121°15'511.5
2017-Dec-15 00:19N 22°14' E 121°16'  
Track history (hours):
 
Tides and Currents Weather Stations Pressure Air Temp Water Temp Dewpoint Dewpoint Depression Visibility Wind Speed Wind Dir Waves Ship Positions

MaSS Merit

Last reported at 2017-Dec-15 15:16 UTC. Time now 2017-Dec-17 00:44 UTC.
Position N 25°02' E 122°15'.

Length 189 m; draft 11.8 m.

Type: Cargo ship. MMSI: 355599000.

Date/timePositionNaut miles runAvg speedWind from/ knotsBaromVisibWave heightAir tempDewpointWater temp
2017-Dec-15 15:16N 25°02' E 122°15'310.6
2017-Dec-15 15:00N 24°59' E 122°14'611.2
2017-Dec-15 14:30N 24°54' E 122°13'611.5
2017-Dec-15 14:00N 24°49' E 122°11'611.2
2017-Dec-15 13:30N 24°43' E 122°10'510.3
2017-Dec-15 13:00N 24°39' E 122°07'611.3
2017-Dec-15 12:29N 24°33' E 122°05'1812.0
2017-Dec-15 10:59N 24°15' E 122°00'8812.5
2017-Dec-15 03:57N 22°53' E 121°27'3611.3
2017-Dec-15 00:45N 22°19' E 121°15'511.5
2017-Dec-15 00:19N 22°14' E 121°16'  

Dump ship's entire track history